sensor_id;sensor_type;location;lat;lon;timestamp;P1;durP1;ratioP1;P2;durP2;ratioP2
46391;SDS011;32098;49.448;7.904;2022-12-18T00:01:23;34.67;;;15.27;;
46391;SDS011;32098;49.448;7.904;2022-12-18T00:03:55;36.50;;;15.43;;
46391;SDS011;32098;49.448;7.904;2022-12-18T00:06:23;32.40;;;15.07;;
46391;SDS011;32098;49.448;7.904;2022-12-18T00:08:52;31.43;;;14.53;;
46391;SDS011;32098;49.448;7.904;2022-12-18T00:11:21;28.97;;;14.73;;
46391;SDS011;32098;49.448;7.904;2022-12-18T00:13:50;31.23;;;14.17;;
46391;SDS011;32098;49.448;7.904;2022-12-18T00:16:19;32.53;;;15.27;;
46391;SDS011;32098;49.448;7.904;2022-12-18T00:18:48;31.10;;;13.90;;
46391;SDS011;32098;49.448;7.904;2022-12-18T00:21:17;30.43;;;14.70;;
46391;SDS011;32098;49.448;7.904;2022-12-18T00:23:45;27.50;;;13.27;;
46391;SDS011;32098;49.448;7.904;2022-12-18T00:26:14;29.90;;;13.17;;
46391;SDS011;32098;49.448;7.904;2022-12-18T00:28:59;30.17;;;14.47;;
46391;SDS011;32098;49.448;7.904;2022-12-18T00:31:29;26.57;;;13.90;;
46391;SDS011;32098;49.448;7.904;2022-12-18T00:33:56;29.20;;;14.47;;
46391;SDS011;32098;49.448;7.904;2022-12-18T00:36:25;32.43;;;14.60;;
46391;SDS011;32098;49.448;7.904;2022-12-18T00:38:56;33.50;;;14.30;;
46391;SDS011;32098;49.448;7.904;2022-12-18T00:41:24;29.23;;;14.10;;
46391;SDS011;32098;49.448;7.904;2022-12-18T00:44:10;30.30;;;13.87;;
46391;SDS011;32098;49.448;7.904;2022-12-18T00:46:39;28.77;;;14.17;;
46391;SDS011;32098;49.448;7.904;2022-12-18T00:49:06;30.03;;;14.47;;
46391;SDS011;32098;49.448;7.904;2022-12-18T00:51:33;26.60;;;14.30;;
46391;SDS011;32098;49.448;7.904;2022-12-18T00:54:00;28.97;;;14.57;;
46391;SDS011;32098;49.448;7.904;2022-12-18T00:56:26;26.10;;;14.10;;
46391;SDS011;32098;49.448;7.904;2022-12-18T00:58:53;29.57;;;14.10;;
46391;SDS011;32098;49.448;7.904;2022-12-18T01:01:20;29.13;;;13.97;;
46391;SDS011;32098;49.448;7.904;2022-12-18T01:03:48;25.17;;;13.80;;
46391;SDS011;32098;49.448;7.904;2022-12-18T01:06:15;29.07;;;14.67;;
46391;SDS011;32098;49.448;7.904;2022-12-18T01:08:43;28.17;;;14.43;;
46391;SDS011;32098;49.448;7.904;2022-12-18T01:11:12;28.10;;;13.73;;
46391;SDS011;32098;49.448;7.904;2022-12-18T01:13:42;26.53;;;14.17;;
46391;SDS011;32098;49.448;7.904;2022-12-18T01:16:13;30.40;;;13.83;;
46391;SDS011;32098;49.448;7.904;2022-12-18T01:18:41;30.90;;;14.70;;
46391;SDS011;32098;49.448;7.904;2022-12-18T01:21:09;29.63;;;13.70;;
46391;SDS011;32098;49.448;7.904;2022-12-18T01:23:37;26.27;;;13.77;;
46391;SDS011;32098;49.448;7.904;2022-12-18T01:26:09;27.57;;;13.00;;
46391;SDS011;32098;49.448;7.904;2022-12-18T01:28:44;25.30;;;13.47;;
46391;SDS011;32098;49.448;7.904;2022-12-18T01:31:20;28.30;;;14.60;;
46391;SDS011;32098;49.448;7.904;2022-12-18T01:33:49;27.73;;;13.60;;
46391;SDS011;32098;49.448;7.904;2022-12-18T01:36:17;34.27;;;15.37;;
46391;SDS011;32098;49.448;7.904;2022-12-18T01:38:46;28.17;;;14.07;;
46391;SDS011;32098;49.448;7.904;2022-12-18T01:41:16;28.97;;;14.63;;
46391;SDS011;32098;49.448;7.904;2022-12-18T01:43:48;30.87;;;15.13;;
46391;SDS011;32098;49.448;7.904;2022-12-18T01:46:24;30.80;;;15.17;;
46391;SDS011;32098;49.448;7.904;2022-12-18T01:48:58;29.63;;;15.13;;
46391;SDS011;32098;49.448;7.904;2022-12-18T01:51:27;29.50;;;13.87;;
46391;SDS011;32098;49.448;7.904;2022-12-18T01:53:56;29.70;;;14.50;;
46391;SDS011;32098;49.448;7.904;2022-12-18T01:56:24;29.50;;;14.23;;
46391;SDS011;32098;49.448;7.904;2022-12-18T01:59:02;27.73;;;14.40;;
46391;SDS011;32098;49.448;7.904;2022-12-18T02:01:32;28.70;;;13.33;;
46391;SDS011;32098;49.448;7.904;2022-12-18T02:06:51;30.37;;;13.77;;
46391;SDS011;32098;49.448;7.904;2022-12-18T02:09:33;27.67;;;12.97;;
46391;SDS011;32098;49.448;7.904;2022-12-18T02:12:13;28.23;;;14.33;;
46391;SDS011;32098;49.448;7.904;2022-12-18T02:14:55;31.10;;;14.13;;
46391;SDS011;32098;49.448;7.904;2022-12-18T02:17:37;30.27;;;13.50;;
46391;SDS011;32098;49.448;7.904;2022-12-18T02:20:19;30.47;;;12.90;;
46391;SDS011;32098;49.448;7.904;2022-12-18T02:28:21;28.30;;;13.47;;
46391;SDS011;32098;49.448;7.904;2022-12-18T02:30:54;31.90;;;15.10;;
46391;SDS011;32098;49.448;7.904;2022-12-18T02:33:24;31.17;;;14.10;;
46391;SDS011;32098;49.448;7.904;2022-12-18T02:35:55;32.93;;;15.27;;
46391;SDS011;32098;49.448;7.904;2022-12-18T02:38:25;29.37;;;13.67;;
46391;SDS011;32098;49.448;7.904;2022-12-18T02:40:58;27.27;;;13.00;;
46391;SDS011;32098;49.448;7.904;2022-12-18T02:43:26;29.30;;;14.17;;
46391;SDS011;32098;49.448;7.904;2022-12-18T02:45:56;27.90;;;13.53;;
46391;SDS011;32098;49.448;7.904;2022-12-18T02:48:32;31.90;;;16.07;;
46391;SDS011;32098;49.448;7.904;2022-12-18T02:54:06;30.70;;;13.63;;
46391;SDS011;32098;49.448;7.904;2022-12-18T02:56:43;29.47;;;13.50;;
46391;SDS011;32098;49.448;7.904;2022-12-18T02:59:19;27.87;;;14.13;;
46391;SDS011;32098;49.448;7.904;2022-12-18T03:01:57;29.00;;;13.90;;
46391;SDS011;32098;49.448;7.904;2022-12-18T03:04:42;29.03;;;13.00;;
46391;SDS011;32098;49.448;7.904;2022-12-18T03:07:35;30.20;;;13.47;;
46391;SDS011;32098;49.448;7.904;2022-12-18T03:10:09;28.73;;;14.17;;
46391;SDS011;32098;49.448;7.904;2022-12-18T03:12:44;28.87;;;13.97;;
46391;SDS011;32098;49.448;7.904;2022-12-18T03:17:59;26.90;;;13.10;;
46391;SDS011;32098;49.448;7.904;2022-12-18T03:20:31;29.13;;;13.57;;
46391;SDS011;32098;49.448;7.904;2022-12-18T03:23:02;32.13;;;14.60;;
46391;SDS011;32098;49.448;7.904;2022-12-18T03:25:36;28.73;;;13.77;;
46391;SDS011;32098;49.448;7.904;2022-12-18T03:28:09;24.37;;;12.40;;
46391;SDS011;32098;49.448;7.904;2022-12-18T03:30:41;30.57;;;13.77;;
46391;SDS011;32098;49.448;7.904;2022-12-18T03:33:25;32.97;;;14.67;;
46391;SDS011;32098;49.448;7.904;2022-12-18T03:36:06;32.43;;;14.17;;
46391;SDS011;32098;49.448;7.904;2022-12-18T03:38:33;30.07;;;14.20;;
46391;SDS011;32098;49.448;7.904;2022-12-18T03:47:09;31.27;;;14.03;;
46391;SDS011;32098;49.448;7.904;2022-12-18T03:55:35;31.00;;;14.90;;
46391;SDS011;32098;49.448;7.904;2022-12-18T03:58:04;31.07;;;14.77;;
46391;SDS011;32098;49.448;7.904;2022-12-18T04:00:46;27.33;;;13.27;;
46391;SDS011;32098;49.448;7.904;2022-12-18T04:03:16;31.30;;;13.97;;
46391;SDS011;32098;49.448;7.904;2022-12-18T04:05:51;28.30;;;13.57;;
46391;SDS011;32098;49.448;7.904;2022-12-18T04:08:25;27.87;;;12.83;;
46391;SDS011;32098;49.448;7.904;2022-12-18T04:11:00;28.70;;;13.60;;
46391;SDS011;32098;49.448;7.904;2022-12-18T04:13:29;30.90;;;13.83;;
46391;SDS011;32098;49.448;7.904;2022-12-18T04:16:04;33.53;;;13.53;;
46391;SDS011;32098;49.448;7.904;2022-12-18T04:18:31;34.60;;;14.23;;
46391;SDS011;32098;49.448;7.904;2022-12-18T04:21:00;29.27;;;13.73;;
46391;SDS011;32098;49.448;7.904;2022-12-18T04:23:27;30.23;;;14.03;;
46391;SDS011;32098;49.448;7.904;2022-12-18T04:25:57;26.37;;;12.07;;
46391;SDS011;32098;49.448;7.904;2022-12-18T04:28:39;22.83;;;11.87;;
46391;SDS011;32098;49.448;7.904;2022-12-18T04:31:06;30.50;;;14.17;;
46391;SDS011;32098;49.448;7.904;2022-12-18T04:33:33;25.47;;;12.80;;
46391;SDS011;32098;49.448;7.904;2022-12-18T04:36:00;29.73;;;12.93;;
46391;SDS011;32098;49.448;7.904;2022-12-18T04:41:32;30.23;;;13.63;;
46391;SDS011;32098;49.448;7.904;2022-12-18T04:44:00;27.37;;;12.73;;
46391;SDS011;32098;49.448;7.904;2022-12-18T04:46:27;29.73;;;14.40;;
46391;SDS011;32098;49.448;7.904;2022-12-18T04:48:53;27.10;;;13.40;;
46391;SDS011;32098;49.448;7.904;2022-12-18T04:51:21;26.87;;;11.77;;
46391;SDS011;32098;49.448;7.904;2022-12-18T04:53:52;27.47;;;13.27;;
46391;SDS011;32098;49.448;7.904;2022-12-18T04:56:19;26.80;;;12.47;;
46391;SDS011;32098;49.448;7.904;2022-12-18T04:58:46;28.13;;;13.13;;
46391;SDS011;32098;49.448;7.904;2022-12-18T05:01:16;28.07;;;13.23;;
46391;SDS011;32098;49.448;7.904;2022-12-18T05:03:44;28.27;;;12.27;;
46391;SDS011;32098;49.448;7.904;2022-12-18T05:06:11;30.20;;;13.73;;
46391;SDS011;32098;49.448;7.904;2022-12-18T05:08:38;27.33;;;12.73;;
46391;SDS011;32098;49.448;7.904;2022-12-18T05:11:10;29.87;;;13.57;;
46391;SDS011;32098;49.448;7.904;2022-12-18T05:13:39;30.10;;;13.40;;
46391;SDS011;32098;49.448;7.904;2022-12-18T05:16:06;31.47;;;13.73;;
46391;SDS011;32098;49.448;7.904;2022-12-18T05:18:34;30.60;;;12.80;;
46391;SDS011;32098;49.448;7.904;2022-12-18T05:21:01;29.10;;;13.40;;
46391;SDS011;32098;49.448;7.904;2022-12-18T05:23:28;29.87;;;12.67;;
46391;SDS011;32098;49.448;7.904;2022-12-18T05:26:01;24.37;;;11.80;;
46391;SDS011;32098;49.448;7.904;2022-12-18T05:28:30;27.87;;;12.40;;
46391;SDS011;32098;49.448;7.904;2022-12-18T05:30:59;35.90;;;13.33;;
46391;SDS011;32098;49.448;7.904;2022-12-18T05:33:28;31.43;;;12.70;;
46391;SDS011;32098;49.448;7.904;2022-12-18T05:35:58;28.10;;;13.30;;
46391;SDS011;32098;49.448;7.904;2022-12-18T05:38:30;28.60;;;13.80;;
46391;SDS011;32098;49.448;7.904;2022-12-18T05:40:58;29.63;;;14.03;;
46391;SDS011;32098;49.448;7.904;2022-12-18T05:43:25;32.13;;;13.13;;
46391;SDS011;32098;49.448;7.904;2022-12-18T05:45:53;27.97;;;12.47;;
46391;SDS011;32098;49.448;7.904;2022-12-18T05:48:20;25.13;;;12.73;;
46391;SDS011;32098;49.448;7.904;2022-12-18T05:50:48;29.37;;;12.93;;
46391;SDS011;32098;49.448;7.904;2022-12-18T05:53:17;26.70;;;12.93;;
46391;SDS011;32098;49.448;7.904;2022-12-18T05:55:45;31.43;;;12.73;;
46391;SDS011;32098;49.448;7.904;2022-12-18T05:58:13;27.13;;;13.00;;
46391;SDS011;32098;49.448;7.904;2022-12-18T06:00:42;33.73;;;14.83;;
46391;SDS011;32098;49.448;7.904;2022-12-18T06:03:11;32.80;;;14.13;;
46391;SDS011;32098;49.448;7.904;2022-12-18T06:05:40;31.80;;;12.87;;
46391;SDS011;32098;49.448;7.904;2022-12-18T06:08:09;34.00;;;14.17;;
46391;SDS011;32098;49.448;7.904;2022-12-18T06:10:37;30.87;;;13.03;;
46391;SDS011;32098;49.448;7.904;2022-12-18T06:13:04;29.47;;;13.80;;
46391;SDS011;32098;49.448;7.904;2022-12-18T06:15:32;28.40;;;11.90;;
46391;SDS011;32098;49.448;7.904;2022-12-18T06:18:00;34.77;;;13.67;;
46391;SDS011;32098;49.448;7.904;2022-12-18T06:20:28;28.33;;;14.73;;
46391;SDS011;32098;49.448;7.904;2022-12-18T06:22:59;32.90;;;14.80;;
46391;SDS011;32098;49.448;7.904;2022-12-18T06:25:26;34.00;;;15.80;;
46391;SDS011;32098;49.448;7.904;2022-12-18T06:27:53;30.17;;;14.17;;
46391;SDS011;32098;49.448;7.904;2022-12-18T06:30:20;28.60;;;14.73;;
46391;SDS011;32098;49.448;7.904;2022-12-18T06:32:47;26.47;;;13.53;;
46391;SDS011;32098;49.448;7.904;2022-12-18T06:35:21;30.83;;;15.00;;
46391;SDS011;32098;49.448;7.904;2022-12-18T06:37:48;34.10;;;13.83;;
46391;SDS011;32098;49.448;7.904;2022-12-18T06:40:15;29.37;;;13.77;;
46391;SDS011;32098;49.448;7.904;2022-12-18T06:42:42;27.20;;;14.90;;
46391;SDS011;32098;49.448;7.904;2022-12-18T06:45:09;33.63;;;15.47;;
46391;SDS011;32098;49.448;7.904;2022-12-18T06:47:36;26.10;;;13.17;;
46391;SDS011;32098;49.448;7.904;2022-12-18T06:50:03;31.03;;;14.23;;
46391;SDS011;32098;49.448;7.904;2022-12-18T06:52:31;29.87;;;13.67;;
46391;SDS011;32098;49.448;7.904;2022-12-18T06:54:59;30.67;;;14.60;;
46391;SDS011;32098;49.448;7.904;2022-12-18T06:57:26;32.13;;;14.67;;
46391;SDS011;32098;49.448;7.904;2022-12-18T06:59:53;28.93;;;16.30;;
46391;SDS011;32098;49.448;7.904;2022-12-18T07:02:19;31.47;;;16.13;;
46391;SDS011;32098;49.448;7.904;2022-12-18T07:04:46;31.97;;;16.63;;
46391;SDS011;32098;49.448;7.904;2022-12-18T07:07:13;53.50;;;28.47;;
46391;SDS011;32098;49.448;7.904;2022-12-18T07:09:40;36.60;;;19.13;;
46391;SDS011;32098;49.448;7.904;2022-12-18T07:12:06;32.30;;;15.00;;
46391;SDS011;32098;49.448;7.904;2022-12-18T07:14:34;32.10;;;15.87;;
46391;SDS011;32098;49.448;7.904;2022-12-18T07:17:01;30.57;;;16.10;;
46391;SDS011;32098;49.448;7.904;2022-12-18T07:19:28;29.50;;;14.40;;
46391;SDS011;32098;49.448;7.904;2022-12-18T07:21:56;32.47;;;15.87;;
46391;SDS011;32098;49.448;7.904;2022-12-18T07:24:23;33.20;;;14.23;;
46391;SDS011;32098;49.448;7.904;2022-12-18T07:26:49;29.93;;;13.23;;
46391;SDS011;32098;49.448;7.904;2022-12-18T07:29:16;29.87;;;13.63;;
46391;SDS011;32098;49.448;7.904;2022-12-18T07:31:44;32.27;;;13.97;;
46391;SDS011;32098;49.448;7.904;2022-12-18T07:34:11;25.17;;;12.87;;
46391;SDS011;32098;49.448;7.904;2022-12-18T07:36:38;29.27;;;14.93;;
46391;SDS011;32098;49.448;7.904;2022-12-18T07:39:05;28.03;;;12.53;;
46391;SDS011;32098;49.448;7.904;2022-12-18T07:41:32;28.37;;;13.87;;
46391;SDS011;32098;49.448;7.904;2022-12-18T07:44:09;34.13;;;17.07;;
46391;SDS011;32098;49.448;7.904;2022-12-18T07:46:36;35.83;;;15.80;;
46391;SDS011;32098;49.448;7.904;2022-12-18T07:49:03;30.70;;;14.87;;
46391;SDS011;32098;49.448;7.904;2022-12-18T07:51:30;56.97;;;28.10;;
46391;SDS011;32098;49.448;7.904;2022-12-18T07:53:57;55.33;;;23.40;;
46391;SDS011;32098;49.448;7.904;2022-12-18T07:56:24;34.07;;;17.57;;
46391;SDS011;32098;49.448;7.904;2022-12-18T07:58:53;38.03;;;17.57;;
46391;SDS011;32098;49.448;7.904;2022-12-18T08:01:21;42.13;;;19.20;;
46391;SDS011;32098;49.448;7.904;2022-12-18T08:03:48;37.67;;;17.63;;
46391;SDS011;32098;49.448;7.904;2022-12-18T08:06:17;30.93;;;15.03;;
46391;SDS011;32098;49.448;7.904;2022-12-18T08:08:53;32.63;;;14.63;;
46391;SDS011;32098;49.448;7.904;2022-12-18T08:11:21;37.17;;;16.20;;
46391;SDS011;32098;49.448;7.904;2022-12-18T08:13:49;38.70;;;17.43;;
46391;SDS011;32098;49.448;7.904;2022-12-18T08:16:15;41.43;;;18.67;;
46391;SDS011;32098;49.448;7.904;2022-12-18T08:18:43;40.77;;;18.87;;
46391;SDS011;32098;49.448;7.904;2022-12-18T08:21:11;46.47;;;21.77;;
46391;SDS011;32098;49.448;7.904;2022-12-18T08:23:39;45.57;;;21.77;;
46391;SDS011;32098;49.448;7.904;2022-12-18T08:26:09;34.67;;;18.10;;
46391;SDS011;32098;49.448;7.904;2022-12-18T08:28:37;44.67;;;22.97;;
46391;SDS011;32098;49.448;7.904;2022-12-18T08:31:04;51.60;;;24.27;;
46391;SDS011;32098;49.448;7.904;2022-12-18T08:33:32;48.23;;;23.53;;
46391;SDS011;32098;49.448;7.904;2022-12-18T08:35:59;50.33;;;23.87;;
46391;SDS011;32098;49.448;7.904;2022-12-18T08:38:27;53.40;;;21.90;;
46391;SDS011;32098;49.448;7.904;2022-12-18T08:40:58;39.43;;;17.77;;
46391;SDS011;32098;49.448;7.904;2022-12-18T08:43:28;36.40;;;17.27;;
46391;SDS011;32098;49.448;7.904;2022-12-18T08:46:13;32.57;;;16.07;;
46391;SDS011;32098;49.448;7.904;2022-12-18T08:48:40;34.37;;;16.87;;
46391;SDS011;32098;49.448;7.904;2022-12-18T08:51:07;35.33;;;16.40;;
46391;SDS011;32098;49.448;7.904;2022-12-18T08:53:36;37.10;;;15.90;;
46391;SDS011;32098;49.448;7.904;2022-12-18T08:56:04;33.37;;;16.77;;
46391;SDS011;32098;49.448;7.904;2022-12-18T08:58:31;35.70;;;17.30;;
46391;SDS011;32098;49.448;7.904;2022-12-18T09:01:02;38.57;;;19.00;;
46391;SDS011;32098;49.448;7.904;2022-12-18T09:03:33;45.03;;;19.63;;
46391;SDS011;32098;49.448;7.904;2022-12-18T09:06:00;39.73;;;19.60;;
46391;SDS011;32098;49.448;7.904;2022-12-18T09:08:27;39.37;;;21.03;;
46391;SDS011;32098;49.448;7.904;2022-12-18T09:10:54;39.97;;;19.87;;
46391;SDS011;32098;49.448;7.904;2022-12-18T09:13:21;41.60;;;21.67;;
46391;SDS011;32098;49.448;7.904;2022-12-18T09:15:50;37.47;;;20.07;;
46391;SDS011;32098;49.448;7.904;2022-12-18T09:20:49;43.57;;;21.67;;
46391;SDS011;32098;49.448;7.904;2022-12-18T09:23:18;45.30;;;21.50;;
46391;SDS011;32098;49.448;7.904;2022-12-18T09:25:45;39.80;;;20.47;;
46391;SDS011;32098;49.448;7.904;2022-12-18T09:28:13;42.60;;;20.93;;
46391;SDS011;32098;49.448;7.904;2022-12-18T09:30:42;43.80;;;20.90;;
46391;SDS011;32098;49.448;7.904;2022-12-18T09:33:11;39.23;;;21.33;;
46391;SDS011;32098;49.448;7.904;2022-12-18T09:35:38;39.90;;;20.37;;
46391;SDS011;32098;49.448;7.904;2022-12-18T09:38:06;44.17;;;22.67;;
46391;SDS011;32098;49.448;7.904;2022-12-18T09:40:34;40.73;;;21.00;;
46391;SDS011;32098;49.448;7.904;2022-12-18T09:43:06;41.97;;;21.07;;
46391;SDS011;32098;49.448;7.904;2022-12-18T09:46:10;42.33;;;22.63;;
46391;SDS011;32098;49.448;7.904;2022-12-18T09:48:44;40.83;;;21.50;;
46391;SDS011;32098;49.448;7.904;2022-12-18T09:51:15;43.70;;;23.60;;
46391;SDS011;32098;49.448;7.904;2022-12-18T09:53:47;43.07;;;21.67;;
46391;SDS011;32098;49.448;7.904;2022-12-18T09:56:20;42.33;;;21.80;;
46391;SDS011;32098;49.448;7.904;2022-12-18T10:01:22;66.00;;;27.20;;
46391;SDS011;32098;49.448;7.904;2022-12-18T10:03:49;57.67;;;28.20;;
46391;SDS011;32098;49.448;7.904;2022-12-18T10:06:29;71.67;;;31.73;;
46391;SDS011;32098;49.448;7.904;2022-12-18T10:09:04;47.77;;;24.43;;
46391;SDS011;32098;49.448;7.904;2022-12-18T10:14:43;33.67;;;19.30;;
46391;SDS011;32098;49.448;7.904;2022-12-18T10:25:37;39.20;;;22.17;;
46391;SDS011;32098;49.448;7.904;2022-12-18T10:28:16;40.07;;;20.97;;
46391;SDS011;32098;49.448;7.904;2022-12-18T10:30:45;39.87;;;20.67;;
46391;SDS011;32098;49.448;7.904;2022-12-18T10:33:19;43.73;;;21.23;;
46391;SDS011;32098;49.448;7.904;2022-12-18T10:35:50;39.07;;;20.97;;
46391;SDS011;32098;49.448;7.904;2022-12-18T10:48:26;42.87;;;21.17;;
46391;SDS011;32098;49.448;7.904;2022-12-18T10:50:54;40.53;;;21.20;;
46391;SDS011;32098;49.448;7.904;2022-12-18T10:53:39;40.13;;;20.40;;
46391;SDS011;32098;49.448;7.904;2022-12-18T10:56:08;41.20;;;20.30;;
46391;SDS011;32098;49.448;7.904;2022-12-18T10:58:37;42.87;;;21.70;;
46391;SDS011;32098;49.448;7.904;2022-12-18T11:01:15;41.37;;;21.93;;
46391;SDS011;32098;49.448;7.904;2022-12-18T11:03:58;38.20;;;21.20;;
46391;SDS011;32098;49.448;7.904;2022-12-18T11:06:28;35.80;;;20.30;;
46391;SDS011;32098;49.448;7.904;2022-12-18T11:09:02;40.43;;;19.67;;
46391;SDS011;32098;49.448;7.904;2022-12-18T11:11:39;42.90;;;21.27;;
46391;SDS011;32098;49.448;7.904;2022-12-18T11:14:06;40.00;;;20.40;;
46391;SDS011;32098;49.448;7.904;2022-12-18T11:16:45;42.23;;;21.53;;
46391;SDS011;32098;49.448;7.904;2022-12-18T11:25:38;39.50;;;20.30;;
46391;SDS011;32098;49.448;7.904;2022-12-18T11:28:01;41.33;;;20.47;;
46391;SDS011;32098;49.448;7.904;2022-12-18T11:30:55;36.07;;;19.47;;
46391;SDS011;32098;49.448;7.904;2022-12-18T11:33:51;40.53;;;21.07;;
46391;SDS011;32098;49.448;7.904;2022-12-18T11:36:44;40.43;;;19.77;;
46391;SDS011;32098;49.448;7.904;2022-12-18T11:39:17;38.03;;;19.90;;
46391;SDS011;32098;49.448;7.904;2022-12-18T11:42:03;39.73;;;19.53;;
46391;SDS011;32098;49.448;7.904;2022-12-18T11:47:25;37.77;;;19.23;;
46391;SDS011;32098;49.448;7.904;2022-12-18T11:49:59;38.07;;;20.23;;
46391;SDS011;32098;49.448;7.904;2022-12-18T11:52:32;40.23;;;19.70;;
46391;SDS011;32098;49.448;7.904;2022-12-18T11:55:09;37.47;;;19.97;;
46391;SDS011;32098;49.448;7.904;2022-12-18T12:00:16;43.43;;;22.87;;
46391;SDS011;32098;49.448;7.904;2022-12-18T12:03:07;44.13;;;22.03;;
46391;SDS011;32098;49.448;7.904;2022-12-18T12:06:24;43.93;;;21.20;;
46391;SDS011;32098;49.448;7.904;2022-12-18T12:12:29;45.00;;;20.70;;
46391;SDS011;32098;49.448;7.904;2022-12-18T12:17:42;41.70;;;21.10;;
46391;SDS011;32098;49.448;7.904;2022-12-18T12:23:23;35.60;;;19.87;;
46391;SDS011;32098;49.448;7.904;2022-12-18T12:26:15;40.87;;;20.67;;
46391;SDS011;32098;49.448;7.904;2022-12-18T12:29:01;36.27;;;19.20;;
46391;SDS011;32098;49.448;7.904;2022-12-18T12:31:50;37.20;;;19.67;;
46391;SDS011;32098;49.448;7.904;2022-12-18T12:38:04;38.03;;;19.80;;
46391;SDS011;32098;49.448;7.904;2022-12-18T12:40:33;35.97;;;19.53;;
46391;SDS011;32098;49.448;7.904;2022-12-18T12:43:38;35.97;;;18.27;;
46391;SDS011;32098;49.448;7.904;2022-12-18T12:46:17;34.57;;;17.90;;
46391;SDS011;32098;49.448;7.904;2022-12-18T12:48:48;36.93;;;19.63;;
46391;SDS011;32098;49.448;7.904;2022-12-18T12:51:26;40.13;;;20.13;;
46391;SDS011;32098;49.448;7.904;2022-12-18T12:54:11;39.33;;;19.03;;
46391;SDS011;32098;49.448;7.904;2022-12-18T12:56:57;41.10;;;21.80;;
46391;SDS011;32098;49.448;7.904;2022-12-18T13:00:20;36.60;;;19.30;;
46391;SDS011;32098;49.448;7.904;2022-12-18T13:02:48;40.57;;;20.03;;
46391;SDS011;32098;49.448;7.904;2022-12-18T13:05:25;38.33;;;20.13;;
46391;SDS011;32098;49.448;7.904;2022-12-18T13:08:22;37.43;;;19.37;;
46391;SDS011;32098;49.448;7.904;2022-12-18T13:10:51;36.00;;;19.17;;
46391;SDS011;32098;49.448;7.904;2022-12-18T13:13:52;38.53;;;19.50;;
46391;SDS011;32098;49.448;7.904;2022-12-18T13:16:24;36.47;;;20.30;;
46391;SDS011;32098;49.448;7.904;2022-12-18T13:18:55;35.93;;;19.90;;
46391;SDS011;32098;49.448;7.904;2022-12-18T13:23:54;35.90;;;19.87;;
46391;SDS011;32098;49.448;7.904;2022-12-18T13:28:55;39.20;;;19.87;;
46391;SDS011;32098;49.448;7.904;2022-12-18T13:39:45;37.93;;;20.20;;
46391;SDS011;32098;49.448;7.904;2022-12-18T13:44:59;38.50;;;19.60;;
46391;SDS011;32098;49.448;7.904;2022-12-18T13:50:13;38.87;;;20.40;;
46391;SDS011;32098;49.448;7.904;2022-12-18T13:52:48;37.37;;;19.50;;
46391;SDS011;32098;49.448;7.904;2022-12-18T13:55:18;36.37;;;18.73;;
46391;SDS011;32098;49.448;7.904;2022-12-18T13:57:47;37.23;;;19.07;;
46391;SDS011;32098;49.448;7.904;2022-12-18T14:00:24;38.10;;;21.23;;
46391;SDS011;32098;49.448;7.904;2022-12-18T14:02:54;36.47;;;19.60;;
46391;SDS011;32098;49.448;7.904;2022-12-18T14:05:30;37.27;;;19.37;;
46391;SDS011;32098;49.448;7.904;2022-12-18T14:08:06;38.43;;;19.80;;
46391;SDS011;32098;49.448;7.904;2022-12-18T14:10:41;36.70;;;18.67;;
46391;SDS011;32098;49.448;7.904;2022-12-18T14:13:28;33.80;;;18.60;;
46391;SDS011;32098;49.448;7.904;2022-12-18T14:15:58;35.97;;;18.70;;
46391;SDS011;32098;49.448;7.904;2022-12-18T14:18:32;38.67;;;19.30;;
46391;SDS011;32098;49.448;7.904;2022-12-18T14:21:06;38.07;;;19.43;;
46391;SDS011;32098;49.448;7.904;2022-12-18T14:23:43;38.33;;;19.70;;
46391;SDS011;32098;49.448;7.904;2022-12-18T14:26:27;39.90;;;20.63;;
46391;SDS011;32098;49.448;7.904;2022-12-18T14:28:56;39.40;;;20.80;;
46391;SDS011;32098;49.448;7.904;2022-12-18T14:31:38;40.43;;;19.37;;
46391;SDS011;32098;49.448;7.904;2022-12-18T14:34:04;37.27;;;19.67;;
46391;SDS011;32098;49.448;7.904;2022-12-18T14:36:31;40.13;;;20.10;;
46391;SDS011;32098;49.448;7.904;2022-12-18T14:38:58;38.87;;;19.57;;
46391;SDS011;32098;49.448;7.904;2022-12-18T14:41:25;40.10;;;19.63;;
46391;SDS011;32098;49.448;7.904;2022-12-18T14:43:54;42.23;;;20.57;;
46391;SDS011;32098;49.448;7.904;2022-12-18T14:46:39;41.37;;;20.67;;
46391;SDS011;32098;49.448;7.904;2022-12-18T14:49:23;38.43;;;19.63;;
46391;SDS011;32098;49.448;7.904;2022-12-18T14:51:54;40.23;;;19.93;;
46391;SDS011;32098;49.448;7.904;2022-12-18T14:54:23;39.77;;;20.43;;
46391;SDS011;32098;49.448;7.904;2022-12-18T14:56:52;41.20;;;21.93;;
46391;SDS011;32098;49.448;7.904;2022-12-18T14:59:24;38.50;;;19.87;;
46391;SDS011;32098;49.448;7.904;2022-12-18T15:04:46;38.77;;;20.00;;
46391;SDS011;32098;49.448;7.904;2022-12-18T15:07:14;39.00;;;20.07;;
46391;SDS011;32098;49.448;7.904;2022-12-18T15:10:31;42.80;;;22.23;;
46391;SDS011;32098;49.448;7.904;2022-12-18T15:12:46;40.63;;;21.17;;
46391;SDS011;32098;49.448;7.904;2022-12-18T15:18:00;39.50;;;19.67;;
46391;SDS011;32098;49.448;7.904;2022-12-18T15:20:29;44.23;;;22.60;;
46391;SDS011;32098;49.448;7.904;2022-12-18T15:22:58;39.87;;;20.37;;
46391;SDS011;32098;49.448;7.904;2022-12-18T15:25:27;40.67;;;20.60;;
46391;SDS011;32098;49.448;7.904;2022-12-18T15:28:04;44.37;;;21.93;;
46391;SDS011;32098;49.448;7.904;2022-12-18T15:36:21;44.70;;;21.80;;
46391;SDS011;32098;49.448;7.904;2022-12-18T15:38:52;40.50;;;21.90;;
46391;SDS011;32098;49.448;7.904;2022-12-18T15:41:33;40.53;;;22.10;;
46391;SDS011;32098;49.448;7.904;2022-12-18T15:44:02;43.40;;;24.00;;
46391;SDS011;32098;49.448;7.904;2022-12-18T15:46:41;37.00;;;20.37;;
46391;SDS011;32098;49.448;7.904;2022-12-18T15:49:08;48.10;;;25.60;;
46391;SDS011;32098;49.448;7.904;2022-12-18T15:51:35;46.90;;;28.30;;
46391;SDS011;32098;49.448;7.904;2022-12-18T15:54:04;40.50;;;21.20;;
46391;SDS011;32098;49.448;7.904;2022-12-18T15:56:46;41.23;;;21.50;;
46391;SDS011;32098;49.448;7.904;2022-12-18T15:59:45;41.70;;;21.33;;
46391;SDS011;32098;49.448;7.904;2022-12-18T16:02:14;40.70;;;20.83;;
46391;SDS011;32098;49.448;7.904;2022-12-18T16:07:31;39.93;;;21.10;;
46391;SDS011;32098;49.448;7.904;2022-12-18T16:09:58;43.10;;;21.10;;
46391;SDS011;32098;49.448;7.904;2022-12-18T16:12:27;43.00;;;22.30;;
46391;SDS011;32098;49.448;7.904;2022-12-18T16:14:54;42.20;;;21.57;;
46391;SDS011;32098;49.448;7.904;2022-12-18T16:17:21;39.20;;;21.07;;
46391;SDS011;32098;49.448;7.904;2022-12-18T16:19:49;42.37;;;21.13;;
46391;SDS011;32098;49.448;7.904;2022-12-18T16:22:26;44.40;;;22.37;;
46391;SDS011;32098;49.448;7.904;2022-12-18T16:24:55;41.20;;;21.03;;
46391;SDS011;32098;49.448;7.904;2022-12-18T16:27:23;37.07;;;19.63;;
46391;SDS011;32098;49.448;7.904;2022-12-18T16:29:51;40.67;;;22.00;;
46391;SDS011;32098;49.448;7.904;2022-12-18T16:32:18;45.20;;;24.63;;
46391;SDS011;32098;49.448;7.904;2022-12-18T16:34:47;38.40;;;20.80;;
46391;SDS011;32098;49.448;7.904;2022-12-18T16:39:54;41.57;;;21.57;;
46391;SDS011;32098;49.448;7.904;2022-12-18T16:42:21;38.03;;;20.87;;
46391;SDS011;32098;49.448;7.904;2022-12-18T16:44:48;47.73;;;24.70;;